createdAt,value
2019-03-31T00:01:52.890Z,102045.57
2019-03-31T00:04:26.383Z,102163.59
2019-03-31T00:06:59.749Z,102160.98
2019-03-31T00:09:33.149Z,102166.22
2019-03-31T00:12:07.883Z,102164.89
2019-03-31T00:14:41.380Z,102164.47
2019-03-31T00:17:14.791Z,102169.27
2019-03-31T00:19:48.254Z,102159.22
2019-03-31T00:22:21.610Z,102157.89
2019-03-31T00:24:55.262Z,102165.33
2019-03-31T00:27:28.576Z,102164.07
2019-03-31T00:30:02.157Z,102168.05
2019-03-31T00:32:35.608Z,102166.72
2019-03-31T00:35:09.049Z,102161.94
2019-03-31T00:37:42.358Z,102175.96
2019-03-31T00:40:15.907Z,102177.32
2019-03-31T00:42:49.286Z,102182.61
2019-03-31T00:45:22.762Z,102182.17
2019-03-31T00:47:56.361Z,102175.18
2019-03-31T00:50:30.625Z,102172.59
2019-03-31T00:53:04.318Z,102178.38
2019-03-31T00:55:37.793Z,102176.17
2019-03-31T00:58:11.334Z,102170.11
2019-03-31T01:00:44.758Z,102167.64
2019-03-31T01:03:19.913Z,102158.02
2019-03-31T01:05:53.534Z,102167.64
2019-03-31T01:08:27.219Z,102171.65
2019-03-31T01:11:00.619Z,102179.09
2019-03-31T01:13:34.132Z,102184.38
2019-03-31T01:16:07.637Z,102179.14
2019-03-31T01:18:41.218Z,102189.27
2019-03-31T01:21:14.723Z,102186.23
2019-03-31T01:23:48.557Z,102186.71
2019-03-31T01:26:21.864Z,102187.22
2019-03-31T01:28:55.467Z,102187.72
2019-03-31T01:31:29.116Z,102192.56
2019-03-31T01:34:02.554Z,102162.56
2019-03-31T01:36:37.103Z,102194.39
2019-03-31T01:39:10.507Z,102196.19
2019-03-31T01:41:44.110Z,102195.81
2019-03-31T01:44:17.636Z,102200.63
2019-03-31T01:46:51.037Z,102202.83
2019-03-31T01:49:24.392Z,102201.14
2019-03-31T01:51:57.893Z,102202.06
2019-03-31T01:54:31.345Z,102212.51
2019-03-31T01:57:05.404Z,102211.67
2019-03-31T01:59:39.028Z,102219.08
2019-03-31T02:02:12.321Z,102218.25
2019-03-31T02:04:45.770Z,102217.36
2019-03-31T02:07:19.115Z,102220.41
2019-03-31T02:09:52.503Z,102215.64
2019-03-31T02:12:26.158Z,102209.55
2019-03-31T02:14:59.594Z,102209.08
2019-03-31T02:17:32.952Z,102211.27
2019-03-31T02:20:06.454Z,102219.55
2019-03-31T02:22:39.834Z,102219.99
2019-03-31T02:25:13.250Z,102220.44
2019-03-31T02:27:46.682Z,102218.24
2019-03-31T02:30:20.054Z,102207.83
2019-03-31T02:32:53.618Z,102209.55
2019-03-31T02:35:27.021Z,102213.91
2019-03-31T02:38:00.446Z,102215.23
2019-03-31T02:40:33.990Z,102216.97
2019-03-31T02:43:07.179Z,102214.80
2019-03-31T02:45:40.593Z,102211.31
2019-03-31T02:48:14.103Z,102221.30
2019-03-31T02:50:48.780Z,102219.58
2019-03-31T02:53:23.467Z,102219.16
2019-03-31T02:55:56.916Z,102221.77
2019-03-31T02:58:30.413Z,102218.70
2019-03-31T03:01:03.815Z,102218.69
2019-03-31T03:03:38.760Z,102222.61
2019-03-31T03:06:12.180Z,102221.76
2019-03-31T03:08:46.375Z,102228.27
2019-03-31T03:11:19.712Z,102229.16
2019-03-31T03:13:53.400Z,102227.85
2019-03-31T03:16:26.712Z,102224.34
2019-03-31T03:19:01.260Z,102230.88
2019-03-31T03:21:34.567Z,102230.02
2019-03-31T03:24:08.173Z,102226.95
2019-03-31T03:26:41.523Z,102224.80
2019-03-31T03:29:14.975Z,102225.62
2019-03-31T03:31:50.465Z,102228.23
2019-03-31T03:34:25.353Z,102236.03
2019-03-31T03:36:58.841Z,102243.44
2019-03-31T03:39:32.289Z,102244.75
2019-03-31T03:42:05.751Z,102245.16
2019-03-31T03:44:39.091Z,102247.34
2019-03-31T03:47:12.481Z,102246.91
2019-03-31T03:49:46.170Z,102250.80
2019-03-31T03:52:19.566Z,102257.32
2019-03-31T03:54:52.961Z,102254.72
2019-03-31T03:57:26.372Z,102136.19
2019-03-31T03:59:59.737Z,102260.77
2019-03-31T04:02:33.112Z,102267.73
2019-03-31T04:05:06.448Z,102271.19
2019-03-31T04:07:40.004Z,102272.92
2019-03-31T04:10:45.199Z,102265.53
2019-03-31T04:13:18.605Z,102269.41
2019-03-31T04:15:52.006Z,102268.98
2019-03-31T04:18:25.783Z,102279.81
2019-03-31T04:20:59.142Z,102278.95
2019-03-31T04:23:32.545Z,102280.25
2019-03-31T04:26:05.994Z,102280.21
2019-03-31T04:28:39.371Z,102288.91
2019-03-31T04:31:12.878Z,102291.08
2019-03-31T04:33:51.784Z,102288.47
2019-03-31T04:36:21.420Z,102290.20
2019-03-31T04:38:54.832Z,102291.48
2019-03-31T04:41:28.183Z,102292.78
2019-03-31T04:44:01.517Z,102300.16
2019-03-31T04:46:35.287Z,102302.33
2019-03-31T04:49:08.649Z,102303.20
2019-03-31T04:51:42.027Z,102310.52
2019-03-31T04:54:15.392Z,102306.17
2019-03-31T04:56:48.811Z,102310.51
2019-03-31T04:59:22.142Z,102312.25
2019-03-31T05:01:55.921Z,102310.91
2019-03-31T05:04:29.361Z,102314.81
2019-03-31T05:07:04.310Z,102320.02
2019-03-31T05:09:37.904Z,102326.94
2019-03-31T05:12:11.435Z,102334.31
2019-03-31T05:14:45.064Z,102343.00
2019-03-31T05:17:18.417Z,102348.20
2019-03-31T05:19:52.218Z,102337.78
2019-03-31T05:22:25.667Z,102338.61
2019-03-31T05:24:59.077Z,102347.72
2019-03-31T05:27:32.427Z,102352.92
2019-03-31T05:30:06.019Z,102341.16
2019-03-31T05:32:39.742Z,102345.06
2019-03-31T05:35:13.328Z,102354.17
2019-03-31T05:37:51.371Z,102353.73
2019-03-31T05:40:21.952Z,102352.83
2019-03-31T05:42:55.458Z,102363.24
2019-03-31T05:45:29.306Z,102363.23
2019-03-31T05:48:02.796Z,102361.05
2019-03-31T05:50:36.246Z,102367.52
2019-03-31T05:53:10.002Z,102368.87
2019-03-31T05:55:43.323Z,102366.27
2019-03-31T05:58:18.328Z,102368.94
2019-03-31T06:00:53.033Z,102369.44
2019-03-31T06:03:26.490Z,102371.62
2019-03-31T06:06:00.022Z,102377.37
2019-03-31T06:08:33.584Z,102380.03
2019-03-31T06:11:07.113Z,102384.47
2019-03-31T06:13:40.513Z,102384.95
2019-03-31T06:16:13.838Z,102389.78
2019-03-31T06:18:47.287Z,102397.13
2019-03-31T06:21:20.615Z,102397.61
2019-03-31T06:23:54.019Z,102399.73
2019-03-31T06:26:27.340Z,102392.30
2019-03-31T06:29:00.682Z,102397.08
2019-03-31T06:31:34.192Z,102401.41
2019-03-31T06:34:08.037Z,102394.82
2019-03-31T06:36:41.511Z,102403.89
2019-03-31T06:39:14.941Z,102403.02
2019-03-31T06:41:48.348Z,102415.23
2019-03-31T06:44:21.767Z,102412.20
2019-03-31T06:46:55.204Z,102409.11
2019-03-31T06:49:30.100Z,102413.44
2019-03-31T06:52:03.568Z,102414.73
2019-03-31T06:54:37.010Z,102419.52
2019-03-31T06:57:10.344Z,102432.61
2019-03-31T06:59:44.410Z,102435.60
2019-03-31T07:02:17.741Z,102433.44
2019-03-31T07:05:00.913Z,102433.44
2019-03-31T07:07:27.186Z,102439.45
2019-03-31T07:10:00.529Z,102448.56
2019-03-31T07:12:33.999Z,102447.69
2019-03-31T07:15:08.170Z,102448.63
2019-03-31T07:17:41.566Z,102318.51
2019-03-31T07:20:15.203Z,102453.41
2019-03-31T07:22:48.635Z,102455.14
2019-03-31T07:25:22.136Z,102457.82
2019-03-31T07:27:55.617Z,102463.14
2019-03-31T07:30:29.089Z,102466.67
2019-03-31T07:33:03.888Z,102464.11
2019-03-31T07:35:39.088Z,102461.08
2019-03-31T07:38:14.129Z,102460.21
2019-03-31T07:40:47.711Z,102463.26
2019-03-31T07:43:21.165Z,102465.87
2019-03-31T07:45:56.002Z,102468.47
2019-03-31T07:48:31.234Z,102478.03
2019-03-31T07:51:04.666Z,102483.25
2019-03-31T07:53:38.435Z,102483.25
2019-03-31T07:56:11.936Z,102487.59
2019-03-31T07:58:45.303Z,102483.69
2019-03-31T08:01:19.496Z,102478.89
2019-03-31T08:03:52.921Z,102482.38
2019-03-31T08:06:26.409Z,102489.77
2019-03-31T08:08:59.932Z,102488.45
2019-03-31T08:11:33.811Z,102491.45
2019-03-31T08:14:07.554Z,102490.63
2019-03-31T08:16:40.889Z,102490.63
2019-03-31T08:19:14.272Z,102490.64
2019-03-31T08:21:47.796Z,102494.56
2019-03-31T08:24:21.221Z,102491.08
2019-03-31T08:26:54.686Z,102491.56
2019-03-31T08:29:29.698Z,102495.10
2019-03-31T08:32:03.127Z,102503.04
2019-03-31T08:34:36.796Z,102494.87
2019-03-31T08:37:10.202Z,102498.00
2019-03-31T08:39:43.690Z,102499.83
2019-03-31T08:42:17.925Z,102502.03
2019-03-31T08:44:53.438Z,102508.16
2019-03-31T08:47:26.927Z,102514.27
2019-03-31T08:50:02.339Z,102522.53
2019-03-31T08:52:35.707Z,102517.81
2019-03-31T08:55:09.044Z,102529.56
2019-03-31T08:57:42.819Z,102535.72
2019-03-31T09:00:16.296Z,102530.94
2019-03-31T09:02:49.832Z,102550.09
2019-03-31T09:05:23.352Z,102546.64
2019-03-31T09:07:56.821Z,102550.09
2019-03-31T09:10:30.172Z,102559.67
2019-03-31T09:13:03.571Z,102557.97
2019-03-31T09:15:36.930Z,102560.20
2019-03-31T09:18:10.577Z,102556.28
2019-03-31T09:20:43.900Z,102559.33
2019-03-31T09:23:17.268Z,102558.03
2019-03-31T09:25:50.582Z,102557.62
2019-03-31T09:28:24.036Z,102560.67
2019-03-31T09:30:57.379Z,102558.92
2019-03-31T09:33:30.734Z,102555.44
2019-03-31T09:36:15.416Z,102554.59
2019-03-31T09:38:39.277Z,102554.58
2019-03-31T09:41:12.822Z,102553.74
2019-03-31T09:43:46.252Z,102557.23
2019-03-31T09:46:21.630Z,102555.48
2019-03-31T09:48:55.452Z,102554.63
2019-03-31T09:51:29.266Z,102553.77
2019-03-31T09:54:03.139Z,102548.97
2019-03-31T09:56:36.557Z,102552.01
2019-03-31T09:59:10.545Z,102552.44
2019-03-31T10:01:47.193Z,102549.41
2019-03-31T10:04:20.793Z,102548.98
2019-03-31T10:06:55.950Z,102540.70
2019-03-31T10:09:29.645Z,102545.48
2019-03-31T10:12:03.203Z,102538.52
2019-03-31T10:14:37.077Z,102539.38
2019-03-31T10:17:10.532Z,102536.33
2019-03-31T10:19:44.195Z,102547.23
2019-03-31T10:22:19.100Z,102547.67
2019-03-31T10:24:52.649Z,102553.77
2019-03-31T10:27:27.617Z,102553.34
2019-03-31T10:30:00.975Z,102556.37
2019-03-31T10:32:34.456Z,102548.53
2019-03-31T10:35:07.840Z,102549.41
2019-03-31T10:37:41.440Z,102549.84
2019-03-31T10:40:14.963Z,102549.41
2019-03-31T10:42:48.535Z,102556.80
2019-03-31T10:45:21.914Z,102555.50
2019-03-31T10:47:55.616Z,102561.59
2019-03-31T10:50:29.120Z,102558.11
2019-03-31T10:53:02.610Z,102566.84
2019-03-31T10:55:35.867Z,102562.48
2019-03-31T10:58:10.874Z,102554.63
2019-03-31T11:00:47.544Z,102562.47
2019-03-31T11:03:21.918Z,102554.63
2019-03-31T11:05:55.436Z,102548.08
2019-03-31T11:08:29.891Z,102560.73
2019-03-31T11:11:03.588Z,102555.51
2019-03-31T11:13:37.463Z,102554.17
2019-03-31T11:16:10.893Z,102549.82
2019-03-31T11:18:44.792Z,102551.98
2019-03-31T11:21:18.595Z,102541.49
2019-03-31T11:23:52.115Z,102536.70
2019-03-31T11:26:27.149Z,102540.60
2019-03-31T11:29:00.636Z,102532.78
2019-03-31T11:31:34.572Z,102538.86
2019-03-31T11:34:08.107Z,102535.83
2019-03-31T11:36:41.656Z,102538.45
2019-03-31T11:39:16.484Z,102536.27
2019-03-31T11:41:50.515Z,102535.37
2019-03-31T11:44:27.421Z,102544.49
2019-03-31T11:46:59.282Z,102536.62
2019-03-31T11:49:32.611Z,102540.11
2019-03-31T11:52:06.219Z,102538.36
2019-03-31T11:54:39.584Z,102534.02
2019-03-31T11:57:12.915Z,102533.58
2019-03-31T11:59:49.570Z,102538.37
2019-03-31T12:02:27.309Z,102536.59
2019-03-31T12:04:57.768Z,102537.50
2019-03-31T12:07:45.730Z,102534.88
2019-03-31T12:10:08.637Z,102542.28
2019-03-31T12:12:42.266Z,102547.11
2019-03-31T12:15:15.711Z,102537.55
2019-03-31T12:17:51.202Z,102546.27
2019-03-31T12:20:24.679Z,102544.95
2019-03-31T12:22:58.438Z,102541.47
2019-03-31T12:25:31.923Z,102545.39
2019-03-31T12:28:05.147Z,102545.86
2019-03-31T12:30:38.774Z,102538.02
2019-03-31T12:33:12.247Z,102534.52
2019-03-31T12:35:45.605Z,102530.19
2019-03-31T12:38:19.011Z,102419.38
2019-03-31T12:40:52.704Z,102531.06
2019-03-31T12:43:26.124Z,102531.95
2019-03-31T12:45:59.493Z,102531.08
2019-03-31T12:48:32.992Z,102523.66
2019-03-31T12:51:06.522Z,102529.33
2019-03-31T12:53:39.784Z,102536.74
2019-03-31T12:56:13.408Z,102528.89
2019-03-31T12:58:46.918Z,102524.12
2019-03-31T13:01:21.420Z,102524.13
2019-03-31T13:03:54.811Z,102521.50
2019-03-31T13:06:28.138Z,102519.77
2019-03-31T13:09:01.549Z,102510.59
2019-03-31T13:11:36.354Z,102511.06
2019-03-31T13:14:09.671Z,102508.88
2019-03-31T13:16:44.048Z,102505.38
2019-03-31T13:19:17.422Z,102500.59
2019-03-31T13:21:50.715Z,102506.71
2019-03-31T13:24:24.076Z,102500.16
2019-03-31T13:26:59.319Z,102499.74
2019-03-31T13:29:32.689Z,102504.97
2019-03-31T13:32:06.183Z,102497.10
2019-03-31T13:34:39.596Z,102496.67
2019-03-31T13:37:13.373Z,102495.40
2019-03-31T13:39:46.739Z,102493.22
2019-03-31T13:42:20.088Z,102493.64
2019-03-31T13:44:55.136Z,102493.13
2019-03-31T13:47:28.457Z,102493.56
2019-03-31T13:50:02.216Z,102489.89
2019-03-31T13:52:35.628Z,102478.84
2019-03-31T13:55:09.262Z,102475.20
2019-03-31T13:57:44.119Z,102478.21
2019-03-31T14:00:26.776Z,102474.33
2019-03-31T14:02:58.585Z,102473.48
2019-03-31T14:05:32.004Z,102473.77
2019-03-31T14:08:05.329Z,102473.58
2019-03-31T14:10:38.719Z,102468.77
2019-03-31T14:13:12.040Z,102465.14
2019-03-31T14:15:45.410Z,102466.42
2019-03-31T14:18:18.937Z,102463.44
2019-03-31T14:20:52.273Z,102453.43
2019-03-31T14:23:25.699Z,102458.84
2019-03-31T14:25:59.137Z,102455.92
2019-03-31T14:28:32.525Z,102460.84
2019-03-31T14:31:06.112Z,102447.37
2019-03-31T14:33:41.148Z,102460.98
2019-03-31T14:36:14.946Z,102463.67
2019-03-31T14:38:48.280Z,102461.98
2019-03-31T14:41:21.654Z,102456.34
2019-03-31T14:43:55.016Z,102454.17
2019-03-31T14:46:28.687Z,102458.11
2019-03-31T14:49:02.123Z,102463.83
2019-03-31T14:51:35.480Z,102462.09
2019-03-31T14:54:08.786Z,102460.81
2019-03-31T14:56:42.195Z,102461.23
2019-03-31T14:59:15.784Z,102463.45
2019-03-31T15:01:49.595Z,102463.89
2019-03-31T15:04:23.249Z,102464.77
2019-03-31T15:06:56.796Z,102457.80
2019-03-31T15:09:30.268Z,102457.39
2019-03-31T15:12:04.259Z,102461.75
2019-03-31T15:14:53.112Z,102461.34
2019-03-31T15:17:59.229Z,102456.54
2019-03-31T15:20:47.599Z,102387.23
2019-03-31T15:23:38.788Z,102454.78
2019-03-31T15:26:20.582Z,102451.28
2019-03-31T15:28:57.087Z,102447.80
2019-03-31T15:31:30.517Z,102442.98
2019-03-31T15:34:04.203Z,102453.05
2019-03-31T15:36:37.744Z,102443.87
2019-03-31T15:39:12.189Z,102451.72
2019-03-31T15:41:47.326Z,102453.45
2019-03-31T15:44:24.265Z,102455.17
2019-03-31T15:46:58.290Z,102450.37
2019-03-31T15:49:31.754Z,102451.67
2019-03-31T15:52:08.854Z,102353.23
2019-03-31T15:54:42.199Z,102450.39
2019-03-31T15:57:15.770Z,102451.69
2019-03-31T15:59:53.498Z,102442.52
2019-03-31T16:02:27.208Z,102447.75
2019-03-31T16:05:01.218Z,102450.81
2019-03-31T16:07:34.413Z,102451.70
2019-03-31T16:10:08.223Z,102452.98
2019-03-31T16:12:41.688Z,102449.92
2019-03-31T16:15:15.754Z,102450.81
2019-03-31T16:17:49.427Z,102453.87
2019-03-31T16:20:23.127Z,102447.75
2019-03-31T16:22:56.705Z,102449.06
2019-03-31T16:25:30.147Z,102447.76
2019-03-31T16:28:05.369Z,102452.11
2019-03-31T16:30:38.687Z,102453.87
2019-03-31T16:33:12.107Z,102448.62
2019-03-31T16:35:46.011Z,102450.84
2019-03-31T16:38:19.462Z,102443.87
2019-03-31T16:40:58.303Z,102446.51
2019-03-31T16:43:32.390Z,102450.86
2019-03-31T16:46:05.813Z,102450.89
2019-03-31T16:48:39.621Z,102459.18
2019-03-31T16:51:13.368Z,102452.20
2019-03-31T16:53:46.992Z,102454.40
2019-03-31T16:56:21.375Z,102460.50
2019-03-31T16:58:54.810Z,102454.39
2019-03-31T17:01:28.539Z,102457.44
2019-03-31T17:04:02.323Z,102456.14
2019-03-31T17:06:36.783Z,102458.75
2019-03-31T17:09:10.215Z,102467.02
2019-03-31T17:11:45.345Z,102461.79
2019-03-31T17:14:18.880Z,102462.23
2019-03-31T17:16:52.881Z,102458.31
2019-03-31T17:19:27.119Z,102460.06
2019-03-31T17:22:00.766Z,102464.84
2019-03-31T17:24:34.432Z,102461.36
2019-03-31T17:27:07.925Z,102457.86
2019-03-31T17:29:41.520Z,102464.39
2019-03-31T17:32:14.858Z,102458.75
2019-03-31T17:34:48.636Z,102465.71
2019-03-31T17:37:22.133Z,102464.41
2019-03-31T17:40:05.841Z,102457.00
2019-03-31T17:42:30.676Z,102332.71
2019-03-31T17:45:05.828Z,102458.30
2019-03-31T17:47:39.247Z,102461.36
2019-03-31T17:50:13.123Z,102463.53
2019-03-31T17:52:46.666Z,102457.87
2019-03-31T17:55:20.291Z,102461.77
2019-03-31T17:57:54.043Z,102463.95
2019-03-31T18:00:27.422Z,102463.50
2019-03-31T18:03:01.090Z,102463.91
2019-03-31T18:05:34.519Z,102468.67
2019-03-31T18:08:08.138Z,102461.28
2019-03-31T18:10:42.005Z,102470.39
2019-03-31T18:13:15.525Z,102471.27
2019-03-31T18:15:49.055Z,102476.06
2019-03-31T18:18:24.170Z,102475.17
2019-03-31T18:20:57.863Z,102475.61
2019-03-31T18:23:31.340Z,102480.39
2019-03-31T18:26:06.044Z,102484.31
2019-03-31T18:28:39.562Z,102490.38
2019-03-31T18:31:29.887Z,102492.13
2019-03-31T18:34:15.068Z,102488.61
2019-03-31T18:36:48.720Z,102492.50
2019-03-31T18:39:22.602Z,102492.50
2019-03-31T18:41:56.361Z,102499.46
2019-03-31T18:44:30.763Z,102501.20
2019-03-31T18:47:04.511Z,102498.55
2019-03-31T18:49:38.005Z,102505.95
2019-03-31T18:52:11.900Z,102507.27
2019-03-31T18:54:45.955Z,102505.95
2019-03-31T18:57:19.725Z,102515.96
2019-03-31T18:59:53.525Z,102518.54
2019-03-31T19:02:27.011Z,102521.14
2019-03-31T19:05:00.945Z,102527.23
2019-03-31T19:07:34.550Z,102530.72
2019-03-31T19:10:08.358Z,102532.85
2019-03-31T19:12:42.149Z,102538.95
2019-03-31T19:15:16.008Z,102536.34
2019-03-31T19:17:50.216Z,102543.30
2019-03-31T19:20:24.504Z,102537.64
2019-03-31T19:22:57.969Z,102551.55
2019-03-31T19:25:32.404Z,102551.08
2019-03-31T19:28:06.108Z,102549.38
2019-03-31T19:30:39.638Z,102550.69
2019-03-31T19:33:13.131Z,102551.92
2019-03-31T19:35:46.896Z,102554.48
2019-03-31T19:38:20.364Z,102561.81
2019-03-31T19:41:03.889Z,102571.82
2019-03-31T19:43:29.193Z,102563.94
2019-03-31T19:46:05.530Z,102573.06
2019-03-31T19:48:39.199Z,102569.16
2019-03-31T19:51:13.233Z,102579.09
2019-03-31T19:53:46.570Z,102575.12
2019-03-31T19:56:20.024Z,102574.22
2019-03-31T19:58:53.444Z,102585.16
2019-03-31T20:01:27.037Z,102585.61
2019-03-31T20:04:00.761Z,102586.47
2019-03-31T20:06:34.235Z,102582.98
2019-03-31T20:09:08.273Z,102585.25
2019-03-31T20:11:44.394Z,102582.75
2019-03-31T20:14:18.022Z,102585.94
2019-03-31T20:16:51.443Z,102588.69
2019-03-31T20:19:24.874Z,102589.66
2019-03-31T20:21:58.421Z,102589.33
2019-03-31T20:24:33.228Z,102586.37
2019-03-31T20:27:07.646Z,102588.19
2019-03-31T20:29:40.992Z,102588.20
2019-03-31T20:32:14.427Z,102593.03
2019-03-31T20:34:48.159Z,102597.88
2019-03-31T20:37:21.624Z,102601.84
2019-03-31T20:39:56.971Z,102593.11
2019-03-31T20:42:30.398Z,102605.30
2019-03-31T20:45:06.381Z,102602.70
2019-03-31T20:47:39.781Z,102600.47
2019-03-31T20:50:13.212Z,102604.36
2019-03-31T20:52:46.615Z,102608.71
2019-03-31T20:55:20.367Z,102605.62
2019-03-31T20:57:53.543Z,102606.00
2019-03-31T21:00:26.919Z,102602.08
2019-03-31T21:03:00.337Z,102609.04
2019-03-31T21:05:33.846Z,102609.03
2019-03-31T21:08:07.373Z,102608.56
2019-03-31T21:10:40.809Z,102612.94
2019-03-31T21:13:14.246Z,102612.95
2019-03-31T21:15:48.270Z,102621.27
2019-03-31T21:18:21.616Z,102612.95
2019-03-31T21:20:55.008Z,102631.34
2019-03-31T21:23:28.377Z,102627.86
2019-03-31T21:26:01.674Z,102626.97
2019-03-31T21:28:35.214Z,102632.20
2019-03-31T21:31:08.544Z,102634.84
2019-03-31T21:33:41.955Z,102634.00
2019-03-31T21:36:15.989Z,102630.94
2019-03-31T21:38:49.410Z,102640.56
2019-03-31T21:41:22.805Z,102641.01
2019-03-31T21:43:56.233Z,102645.36
2019-03-31T21:46:29.739Z,102641.89
2019-03-31T21:49:03.413Z,102642.32
2019-03-31T21:51:36.740Z,102646.70
2019-03-31T21:54:10.145Z,102636.64
2019-03-31T21:56:43.455Z,102645.38
2019-03-31T21:59:17.031Z,102643.19
2019-03-31T22:01:50.443Z,102654.98
2019-03-31T22:04:23.765Z,102650.19
2019-03-31T22:06:57.298Z,102653.28
2019-03-31T22:09:31.508Z,102648.91
2019-03-31T22:12:04.830Z,102647.19
2019-03-31T22:14:38.226Z,102648.92
2019-03-31T22:17:11.619Z,102645.89
2019-03-31T22:19:44.935Z,102650.72
2019-03-31T22:22:18.389Z,102644.59
2019-03-31T22:24:51.713Z,102648.53
2019-03-31T22:27:25.186Z,102645.49
2019-03-31T22:29:58.521Z,102650.27
2019-03-31T22:32:32.127Z,102648.52
2019-03-31T22:35:05.502Z,102644.16
2019-03-31T22:37:39.713Z,102648.06
2019-03-31T22:40:13.182Z,102644.58
2019-03-31T22:42:46.788Z,102640.20
2019-03-31T22:45:20.203Z,102642.83
2019-03-31T22:47:53.624Z,102642.83
2019-03-31T22:50:27.215Z,102639.75
2019-03-31T22:53:00.516Z,102645.83
2019-03-31T22:55:34.031Z,102641.00
2019-03-31T22:58:07.379Z,102640.99
2019-03-31T23:00:40.761Z,102635.30
2019-03-31T23:03:15.690Z,102638.38
2019-03-31T23:05:50.680Z,102630.92
2019-03-31T23:08:24.188Z,102626.11
2019-03-31T23:10:57.531Z,102627.39
2019-03-31T23:13:31.032Z,102634.77
2019-03-31T23:16:04.524Z,102630.84
2019-03-31T23:18:37.946Z,102631.68
2019-03-31T23:21:11.635Z,102625.11
2019-03-31T23:23:44.975Z,102629.47
2019-03-31T23:26:18.404Z,102631.21
2019-03-31T23:28:51.872Z,102629.40
2019-03-31T23:31:25.304Z,102636.37
2019-03-31T23:33:58.638Z,102632.41
2019-03-31T23:36:32.453Z,102628.05
2019-03-31T23:39:06.960Z,102631.58
2019-03-31T23:41:40.641Z,102623.22
2019-03-31T23:44:13.982Z,102625.31
2019-03-31T23:46:47.513Z,102621.39
2019-03-31T23:49:20.960Z,102621.78
2019-03-31T23:51:54.434Z,102619.99
2019-03-31T23:54:27.763Z,102620.47
2019-03-31T23:57:01.096Z,102619.98
2019-03-31T23:59:35.516Z,102616.89
